Time;durP1;ratioP1;P1;durP2;ratioP2;P2;SDS_P1;SDS_P2;PMS_P1;PMS_P2;Temp;Humidity;BMP_temperature;BMP_pressure;BME280_temperature;BME280_humidity;BME280_pressure;Samples;Min_cycle;Max_cycle;Signal;HPM_P1;HPM_P2
2021/11/06 00:00:37;;;;;;;1.80;1.30;;;6.70;98.00;;;;;;6184926;23;20923;-68
2021/11/06 00:03:06;;;;;;;1.40;1.10;;;6.70;98.00;;;;;;6184842;23;20773;-68
2021/11/06 00:05:33;;;;;;;2.20;1.70;;;6.70;98.00;;;;;;6184651;23;20442;-68
2021/11/06 00:08:01;;;;;;;1.93;1.47;;;6.60;98.00;;;;;;6159240;23;20458;-68
2021/11/06 00:10:28;;;;;;;1.20;1.00;;;6.50;98.00;;;;;;6158930;23;20509;-67
2021/11/06 00:12:57;;;;;;;1.30;1.17;;;6.50;98.00;;;;;;6183880;23;20430;-67
2021/11/06 00:15:27;;;;;;;1.20;1.13;;;6.40;98.00;;;;;;6185065;23;20408;-68
2021/11/06 00:17:55;;;;;;;2.60;1.20;;;6.30;98.00;;;;;;6185083;23;20414;-68
2021/11/06 00:20:23;;;;;;;1.33;1.10;;;6.00;98.00;;;;;;6185073;23;20718;-67
2021/11/06 00:22:50;;;;;;;1.30;1.10;;;6.00;98.00;;;;;;6185167;23;20411;-67
2021/11/06 00:25:17;;;;;;;1.50;1.20;;;6.00;98.00;;;;;;6185422;23;20408;-68
2021/11/06 00:27:46;;;;;;;1.87;1.50;;;5.90;98.00;;;;;;6184594;23;20408;-68
2021/11/06 00:30:13;;;;;;;1.73;1.20;;;6.00;98.00;;;;;;6184787;23;20431;-68
2021/11/06 00:32:42;;;;;;;1.20;1.20;;;6.10;98.00;;;;;;6184376;23;20463;-67
2021/11/06 00:35:11;;;;;;;1.20;1.10;;;6.10;98.00;;;;;;6184128;23;20403;-67
2021/11/06 00:37:39;;;;;;;1.77;1.47;;;6.10;98.00;;;;;;6184822;23;20399;-67
2021/11/06 00:40:08;;;;;;;1.20;1.00;;;6.10;98.00;;;;;;6184114;23;20409;-67
2021/11/06 00:42:40;;;;;;;1.20;1.00;;;6.20;98.00;;;;;;6184484;23;20486;-68
2021/11/06 00:45:09;;;;;;;2.30;1.40;;;6.20;98.00;;;;;;6157779;23;20421;-67
2021/11/06 00:47:36;;;;;;;1.30;1.00;;;6.30;98.00;;;;;;6184048;23;20430;-67
2021/11/06 00:50:05;;;;;;;5.97;1.80;;;6.40;98.00;;;;;;6158683;23;20406;-67
2021/11/06 00:52:33;;;;;;;1.93;1.10;;;6.40;98.00;;;;;;6184622;23;20460;-68
2021/11/06 00:55:00;;;;;;;1.40;1.07;;;6.30;98.00;;;;;;6184409;23;20410;-68
2021/11/06 00:57:29;;;;;;;1.20;1.10;;;6.20;98.00;;;;;;6184195;23;20454;-68
2021/11/06 00:59:56;;;;;;;1.40;1.20;;;6.20;98.00;;;;;;6184509;23;20505;-67
2021/11/06 01:02:23;;;;;;;1.30;1.13;;;6.20;98.00;;;;;;6184210;23;20402;-68
2021/11/06 01:04:54;;;;;;;1.73;1.37;;;6.20;98.00;;;;;;6184092;23;20454;-68
2021/11/06 01:07:21;;;;;;;1.70;1.27;;;6.20;98.00;;;;;;6184427;23;20401;-68
2021/11/06 01:09:50;;;;;;;1.40;1.40;;;6.20;98.00;;;;;;6184304;23;20458;-67
2021/11/06 01:12:17;;;;;;;1.20;1.10;;;6.10;98.00;;;;;;6184399;23;20803;-67
2021/11/06 01:14:44;;;;;;;1.20;1.00;;;6.10;98.00;;;;;;6158304;23;20431;-67
2021/11/06 01:17:12;;;;;;;1.30;1.10;;;6.20;98.00;;;;;;6184575;23;20404;-68
2021/11/06 01:19:39;;;;;;;1.20;1.00;;;6.10;98.00;;;;;;6184461;23;20725;-67
2021/11/06 01:22:06;;;;;;;3.57;2.03;;;5.90;98.00;;;;;;6184459;23;20405;-68
2021/11/06 01:24:33;;;;;;;1.40;1.10;;;6.00;98.00;;;;;;6184176;23;20398;-67
2021/11/06 01:27:02;;;;;;;1.20;1.00;;;6.00;98.00;;;;;;6184228;23;20406;-68
2021/11/06 01:29:29;;;;;;;1.20;1.00;;;5.90;98.00;;;;;;6184146;23;21022;-68
2021/11/06 01:31:57;;;;;;;2.47;1.33;;;5.90;98.00;;;;;;6184387;23;20430;-67
2021/11/06 01:34:24;;;;;;;1.80;1.30;;;5.90;98.00;;;;;;6158691;23;20936;-67
2021/11/06 01:36:59;;;;;;;1.57;1.53;;;5.90;98.00;;;;;;6185601;23;20466;-67
2021/11/06 01:39:26;;;;;;;1.20;1.00;;;5.80;98.00;;;;;;6185456;23;20399;-67
2021/11/06 01:41:53;;;;;;;2.23;1.57;;;5.80;98.00;;;;;;6185646;23;20399;-67
2021/11/06 01:44:23;;;;;;;1.20;1.07;;;5.80;98.00;;;;;;6186170;23;20466;-67
2021/11/06 01:46:50;;;;;;;1.97;1.40;;;5.80;98.00;;;;;;6186245;23;20453;-68
2021/11/06 01:49:20;;;;;;;1.20;0.97;;;5.80;98.00;;;;;;6186055;23;20412;-67
2021/11/06 01:51:47;;;;;;;1.40;1.40;;;5.80;98.00;;;;;;6186011;23;20813;-68
2021/11/06 01:54:14;;;;;;;1.20;1.00;;;5.80;98.00;;;;;;6186054;23;20469;-67
2021/11/06 01:56:42;;;;;;;1.20;1.00;;;5.70;98.00;;;;;;6185979;23;20399;-67
2021/11/06 01:59:09;;;;;;;1.30;1.10;;;5.70;98.00;;;;;;6186130;23;20416;-67
2021/11/06 02:01:38;;;;;;;2.07;1.33;;;5.70;98.00;;;;;;6185581;23;20419;-67
2021/11/06 02:04:07;;;;;;;1.30;1.20;;;5.50;98.00;;;;;;6185942;23;20402;-68
2021/11/06 02:06:34;;;;;;;1.30;1.10;;;5.50;98.00;;;;;;6185950;23;20751;-67
2021/11/06 02:09:01;;;;;;;1.20;1.00;;;5.50;98.00;;;;;;6185579;23;20402;-67
2021/11/06 02:11:29;;;;;;;1.37;1.20;;;5.50;98.00;;;;;;6185647;23;20447;-68
2021/11/06 02:13:57;;;;;;;1.20;1.00;;;5.60;98.00;;;;;;6185614;23;20864;-67
2021/11/06 02:16:26;;;;;;;2.37;1.67;;;5.50;98.00;;;;;;6186080;23;20470;-67
2021/11/06 02:18:54;;;;;;;3.00;1.30;;;5.60;98.00;;;;;;6159986;23;20886;-67
2021/11/06 02:21:23;;;;;;;2.37;1.40;;;5.60;98.00;;;;;;6159757;23;20407;-67
2021/11/06 02:23:50;;;;;;;1.20;1.00;;;5.70;98.00;;;;;;6158870;23;20475;-68
2021/11/06 02:26:20;;;;;;;1.37;1.33;;;5.70;98.00;;;;;;6185442;23;20471;-67
2021/11/06 02:28:51;;;;;;;1.20;1.20;;;5.60;98.00;;;;;;6185921;23;20896;-67
2021/11/06 02:31:19;;;;;;;1.50;1.40;;;5.70;98.00;;;;;;6185706;23;20428;-67
2021/11/06 02:33:46;;;;;;;1.63;1.10;;;5.80;98.00;;;;;;6186142;23;20405;-67
2021/11/06 02:36:13;;;;;;;1.20;1.10;;;5.80;98.00;;;;;;6185723;23;20404;-67
2021/11/06 02:38:42;;;;;;;1.30;1.20;;;5.80;98.00;;;;;;6183533;23;20414;-67
2021/11/06 02:41:09;;;;;;;26.77;1.83;;;5.70;98.00;;;;;;6185722;23;20398;-67
2021/11/06 02:43:36;;;;;;;1.40;1.23;;;5.50;98.00;;;;;;6186156;23;20405;-67
2021/11/06 02:46:03;;;;;;;1.63;1.50;;;5.50;98.00;;;;;;6158993;23;20422;-67
2021/11/06 02:48:30;;;;;;;1.53;1.20;;;5.60;98.00;;;;;;6156184;23;20403;-67
2021/11/06 02:50:57;;;;;;;1.20;1.00;;;5.70;98.00;;;;;;6155518;23;20505;-67
2021/11/06 02:53:24;;;;;;;3.53;1.63;;;5.80;98.00;;;;;;6156077;23;20474;-67
2021/11/06 02:55:53;;;;;;;1.40;1.10;;;5.80;98.00;;;;;;6155998;23;20405;-67
2021/11/06 02:58:22;;;;;;;1.47;1.40;;;5.90;98.00;;;;;;6130528;23;20457;-68
2021/11/06 03:00:49;;;;;;;1.60;1.33;;;5.90;98.00;;;;;;6155723;23;20411;-67
2021/11/06 03:03:20;;;;;;;1.40;1.37;;;5.90;98.00;;;;;;6156159;23;20489;-67
2021/11/06 03:05:47;;;;;;;1.20;0.97;;;5.90;98.00;;;;;;6155367;23;20771;-68
2021/11/06 03:08:14;;;;;;;3.50;1.60;;;6.10;98.00;;;;;;6155875;23;20643;-67
2021/11/06 03:10:41;;;;;;;1.20;1.10;;;6.10;98.00;;;;;;6155282;23;20457;-67
2021/11/06 03:13:10;;;;;;;1.30;1.20;;;6.00;98.00;;;;;;6155429;23;20416;-67
2021/11/06 03:15:37;;;;;;;1.40;1.20;;;5.90;98.00;;;;;;6155326;23;20407;-67
2021/11/06 03:18:04;;;;;;;2.17;1.20;;;5.80;98.00;;;;;;6155466;23;20438;-68
2021/11/06 03:20:32;;;;;;;1.40;1.20;;;5.80;98.00;;;;;;6155475;23;20401;-67
2021/11/06 03:22:59;;;;;;;1.50;1.40;;;5.80;98.00;;;;;;6155593;23;20487;-68
2021/11/06 03:25:26;;;;;;;1.20;1.10;;;5.80;98.00;;;;;;6129785;23;20459;-67
2021/11/06 03:27:54;;;;;;;1.20;1.00;;;5.70;98.00;;;;;;6155686;23;20489;-67
2021/11/06 03:30:25;;;;;;;5.77;1.50;;;5.80;98.00;;;;;;6155446;23;20458;-67
2021/11/06 03:32:52;;;;;;;3.83;1.60;;;5.80;98.00;;;;;;6154546;23;20444;-67
2021/11/06 03:35:21;;;;;;;1.93;1.33;;;5.90;98.00;;;;;;6155129;23;20413;-67
2021/11/06 03:37:49;;;;;;;4.90;1.63;;;6.00;98.00;;;;;;6155522;23;20411;-68
2021/11/06 03:40:16;;;;;;;1.20;1.00;;;6.00;98.00;;;;;;6155406;23;20685;-67
2021/11/06 03:42:44;;;;;;;1.20;1.10;;;6.00;98.00;;;;;;6155458;23;20424;-68
2021/11/06 03:45:11;;;;;;;1.40;1.10;;;6.10;98.00;;;;;;6128741;23;20418;-67
2021/11/06 03:47:40;;;;;;;1.20;1.00;;;6.10;98.00;;;;;;6174396;23;20426;-67
2021/11/06 03:50:09;;;;;;;1.30;1.30;;;5.80;98.00;;;;;;6184636;23;20399;-67
2021/11/06 03:52:37;;;;;;;1.30;1.23;;;5.70;98.00;;;;;;6185021;23;20513;-67
2021/11/06 03:55:06;;;;;;;1.70;1.10;;;5.70;98.00;;;;;;6185185;23;20472;-67
2021/11/06 03:57:34;;;;;;;1.97;1.43;;;5.60;98.00;;;;;;6184333;23;20399;-68
2021/11/06 04:00:01;;;;;;;2.17;1.50;;;5.60;98.00;;;;;;6184748;23;20468;-68
2021/11/06 04:02:30;;;;;;;1.50;1.50;;;5.50;98.00;;;;;;6184664;23;20402;-68
2021/11/06 04:04:58;;;;;;;1.47;1.00;;;5.50;98.00;;;;;;6158356;23;20464;-67
2021/11/06 04:07:26;;;;;;;2.37;1.97;;;5.70;98.00;;;;;;6185049;23;20410;-67
2021/11/06 04:09:52;;;;;;;1.43;1.30;;;5.80;98.00;;;;;;6185102;23;20400;-67
2021/11/06 04:12:20;;;;;;;29.23;2.40;;;5.80;98.00;;;;;;6184247;23;20444;-67
2021/11/06 04:14:46;;;;;;;1.40;1.40;;;5.70;98.00;;;;;;6159375;23;20413;-68
2021/11/06 04:17:14;;;;;;;1.20;1.00;;;5.70;98.00;;;;;;6184735;23;20464;-67
2021/11/06 04:19:42;;;;;;;3.00;1.40;;;5.70;98.00;;;;;;6185027;23;20406;-67
2021/11/06 04:22:11;;;;;;;1.30;1.20;;;5.70;98.00;;;;;;6184245;23;20404;-67
2021/11/06 04:24:39;;;;;;;1.43;1.37;;;5.80;98.00;;;;;;6185136;23;20401;-67
2021/11/06 04:27:07;;;;;;;1.40;1.20;;;5.90;98.00;;;;;;6184029;23;20411;-67
2021/11/06 04:29:35;;;;;;;1.97;1.83;;;5.80;98.00;;;;;;6184699;23;20478;-67
2021/11/06 04:32:04;;;;;;;1.63;1.60;;;5.70;98.00;;;;;;6184527;23;20451;-67
2021/11/06 04:34:30;;;;;;;1.83;1.40;;;5.80;98.00;;;;;;6184390;23;20396;-67
2021/11/06 04:36:57;;;;;;;1.20;1.20;;;6.10;98.00;;;;;;6184441;23;20415;-67
2021/11/06 04:39:26;;;;;;;1.63;1.23;;;6.20;98.00;;;;;;6184587;23;20409;-67
2021/11/06 04:41:53;;;;;;;2.30;1.67;;;6.30;98.00;;;;;;6184360;23;20404;-67
2021/11/06 04:44:20;;;;;;;2.53;1.40;;;6.40;98.00;;;;;;6133844;23;20454;-68
2021/11/06 04:46:47;;;;;;;2.00;1.73;;;6.30;98.00;;;;;;6184432;23;20428;-68
2021/11/06 04:49:14;;;;;;;3.10;1.73;;;6.40;98.00;;;;;;6184348;23;20445;-67
2021/11/06 04:51:41;;;;;;;2.87;2.00;;;6.20;98.00;;;;;;6184480;23;20791;-67
2021/11/06 04:54:08;;;;;;;1.30;1.10;;;6.30;98.00;;;;;;6184271;23;20397;-67
2021/11/06 04:56:37;;;;;;;1.67;1.47;;;6.10;98.00;;;;;;6184502;23;20405;-68
2021/11/06 04:59:04;;;;;;;1.30;1.30;;;6.20;98.00;;;;;;6184354;23;20964;-68
2021/11/06 05:01:31;;;;;;;1.40;1.40;;;6.00;98.00;;;;;;6158345;23;20472;-68
2021/11/06 05:03:58;;;;;;;1.30;1.10;;;6.10;98.00;;;;;;6184488;23;20476;-68
2021/11/06 05:06:26;;;;;;;1.20;1.10;;;6.10;98.00;;;;;;6184087;23;20401;-67
2021/11/06 05:08:56;;;;;;;1.40;1.13;;;6.30;98.00;;;;;;6184463;23;20401;-67
2021/11/06 05:11:23;;;;;;;1.20;1.00;;;6.30;98.00;;;;;;6184227;23;20729;-67
2021/11/06 05:13:52;;;;;;;2.70;1.60;;;6.10;98.00;;;;;;6184264;23;20455;-67
2021/11/06 05:16:19;;;;;;;1.63;1.60;;;6.00;98.00;;;;;;6157329;23;20468;-67
2021/11/06 05:18:46;;;;;;;1.53;1.20;;;5.90;98.00;;;;;;6184155;23;20463;-68
2021/11/06 05:21:13;;;;;;;1.30;1.17;;;5.90;98.00;;;;;;6184481;23;20434;-67
2021/11/06 05:23:42;;;;;;;1.13;1.00;;;5.90;98.00;;;;;;6184511;23;20425;-67
2021/11/06 05:26:09;;;;;;;1.63;1.53;;;6.00;98.00;;;;;;6159146;23;20436;-66
2021/11/06 05:28:36;;;;;;;1.33;1.20;;;6.20;98.00;;;;;;6184457;23;20847;-67
2021/11/06 05:31:04;;;;;;;1.33;1.23;;;6.20;98.00;;;;;;6184053;23;20422;-67
2021/11/06 05:33:31;;;;;;;1.73;1.40;;;6.20;98.00;;;;;;6184456;23;20429;-68
2021/11/06 05:35:59;;;;;;;1.20;1.00;;;6.30;98.00;;;;;;6184124;23;20406;-67
2021/11/06 05:38:26;;;;;;;1.73;1.17;;;6.40;98.00;;;;;;6184300;23;20401;-67
2021/11/06 05:40:53;;;;;;;1.20;1.00;;;6.40;98.00;;;;;;6184333;23;20406;-67
2021/11/06 05:43:20;;;;;;;1.47;1.20;;;6.30;98.00;;;;;;6183775;23;20422;-67
2021/11/06 05:45:48;;;;;;;1.57;1.27;;;6.10;98.00;;;;;;6183997;23;20459;-67
2021/11/06 05:48:16;;;;;;;1.23;1.10;;;5.90;98.00;;;;;;6152648;23;20529;-67
2021/11/06 05:50:44;;;;;;;1.20;1.00;;;5.90;98.00;;;;;;6154344;23;20408;-68
2021/11/06 05:53:12;;;;;;;1.33;1.30;;;5.90;98.00;;;;;;6153839;23;20447;-68
2021/11/06 05:55:39;;;;;;;1.50;1.27;;;5.90;98.00;;;;;;6154522;23;20716;-67
2021/11/06 05:58:07;;;;;;;2.17;1.33;;;5.90;98.00;;;;;;6154283;23;20412;-67
2021/11/06 06:00:34;;;;;;;1.50;1.50;;;5.90;98.00;;;;;;6154344;23;20950;-67
2021/11/06 06:03:01;;;;;;;1.37;1.30;;;6.00;98.00;;;;;;6154471;23;20455;-68
2021/11/06 06:05:29;;;;;;;1.60;1.20;;;6.20;98.00;;;;;;6154028;23;20406;-68
2021/11/06 06:07:56;;;;;;;1.30;1.10;;;6.10;98.00;;;;;;6154398;23;20461;-68
2021/11/06 06:10:23;;;;;;;1.40;1.10;;;6.20;98.00;;;;;;6154329;23;20471;-68
2021/11/06 06:12:52;;;;;;;1.30;1.20;;;6.10;98.00;;;;;;6154430;23;20484;-68
2021/11/06 06:15:20;;;;;;;2.30;1.57;;;6.20;98.00;;;;;;6153967;23;20508;-68
2021/11/06 06:17:49;;;;;;;1.20;1.00;;;6.30;98.00;;;;;;6153999;23;20400;-68
2021/11/06 06:20:16;;;;;;;1.50;1.30;;;6.20;98.00;;;;;;6154369;23;20710;-68
2021/11/06 06:22:45;;;;;;;5.23;1.93;;;6.20;98.00;;;;;;6156289;23;20454;-69
2021/11/06 06:25:14;;;;;;;1.93;1.63;;;6.30;98.00;;;;;;6155937;23;20485;-67
2021/11/06 06:27:45;;;;;;;3.60;1.30;;;6.20;98.00;;;;;;6155984;23;20415;-68
2021/11/06 06:30:15;;;;;;;1.30;1.17;;;6.20;98.00;;;;;;6156302;23;20406;-68
2021/11/06 06:32:42;;;;;;;2.13;1.20;;;6.30;98.00;;;;;;6155660;23;20432;-68
2021/11/06 06:35:10;;;;;;;1.50;1.20;;;6.30;98.00;;;;;;6156239;23;20399;-68
2021/11/06 06:37:39;;;;;;;2.60;1.43;;;6.30;98.00;;;;;;6155954;23;20400;-68
2021/11/06 06:40:13;;;;;;;1.57;1.50;;;6.40;98.00;;;;;;6156653;23;20407;-68
2021/11/06 06:42:41;;;;;;;1.33;1.20;;;6.40;98.00;;;;;;6156100;23;20403;-68
2021/11/06 06:45:08;;;;;;;1.20;1.03;;;6.40;98.00;;;;;;6156041;23;20403;-68
2021/11/06 06:47:35;;;;;;;2.03;1.10;;;6.30;98.00;;;;;;6174328;23;20431;-68
2021/11/06 06:50:06;;;;;;;1.60;1.40;;;6.30;98.00;;;;;;6185814;23;20421;-68
2021/11/06 06:52:33;;;;;;;1.30;1.20;;;6.30;98.00;;;;;;6184975;23;20430;-68
2021/11/06 06:55:00;;;;;;;1.30;1.10;;;6.30;98.00;;;;;;6185689;23;20493;-68
2021/11/06 06:57:31;;;;;;;1.47;1.20;;;6.30;98.00;;;;;;6185456;23;20401;-68
2021/11/06 06:59:58;;;;;;;1.60;1.50;;;6.30;98.00;;;;;;6185391;23;20405;-68
2021/11/06 07:02:25;;;;;;;1.50;1.40;;;6.10;98.00;;;;;;6185130;23;20409;-68
2021/11/06 07:04:53;;;;;;;1.50;1.10;;;6.00;98.00;;;;;;6184798;23;20773;-68
2021/11/06 07:07:20;;;;;;;1.20;1.00;;;6.00;98.00;;;;;;6184287;23;20514;-68
2021/11/06 07:09:47;;;;;;;1.80;1.20;;;5.80;98.00;;;;;;6184240;23;20423;-68
2021/11/06 07:12:14;;;;;;;1.40;1.40;;;5.90;98.00;;;;;;6159248;23;20402;-68
2021/11/06 07:14:43;;;;;;;1.20;1.10;;;6.00;98.00;;;;;;6184683;23;20807;-68
2021/11/06 07:17:10;;;;;;;1.27;1.13;;;5.90;98.00;;;;;;6159369;23;20476;-68
2021/11/06 07:19:37;;;;;;;1.20;1.00;;;5.90;98.00;;;;;;6159000;23;20458;-68
2021/11/06 07:22:06;;;;;;;1.20;1.00;;;5.80;98.00;;;;;;6159103;23;20779;-68
2021/11/06 07:24:35;;;;;;;1.40;1.30;;;5.90;98.00;;;;;;6185150;23;20399;-68
2021/11/06 07:27:02;;;;;;;1.20;0.90;;;6.00;98.00;;;;;;6185255;23;20715;-68
2021/11/06 07:29:29;;;;;;;1.57;1.20;;;5.90;98.00;;;;;;6185279;23;20397;-68
2021/11/06 07:31:57;;;;;;;1.20;1.10;;;5.90;98.00;;;;;;6184831;23;20969;-68
2021/11/06 07:34:24;;;;;;;1.20;1.07;;;5.90;98.00;;;;;;6184448;23;20446;-68
2021/11/06 07:36:51;;;;;;;1.73;1.10;;;6.00;98.00;;;;;;6184970;23;20463;-68
2021/11/06 07:39:19;;;;;;;1.20;1.00;;;6.20;98.00;;;;;;6185432;23;20693;-68
2021/11/06 07:41:46;;;;;;;1.30;1.10;;;6.00;98.00;;;;;;6184997;23;20913;-68
2021/11/06 07:44:21;;;;;;;1.77;1.10;;;6.00;98.00;;;;;;6184952;23;20485;-68
2021/11/06 07:46:48;;;;;;;1.20;1.00;;;6.10;98.00;;;;;;6185084;23;20743;-68
2021/11/06 07:49:17;;;;;;;1.60;1.13;;;6.30;98.00;;;;;;6185256;23;20413;-68
2021/11/06 07:51:45;;;;;;;1.70;1.23;;;6.30;98.00;;;;;;6185368;23;20403;-68
2021/11/06 07:54:12;;;;;;;1.90;1.30;;;6.50;98.00;;;;;;6185061;23;20495;-69
2021/11/06 07:56:40;;;;;;;1.53;1.10;;;6.40;98.00;;;;;;6185359;23;20755;-69
2021/11/06 07:59:07;;;;;;;1.37;1.37;;;6.50;98.00;;;;;;6184237;23;20488;-69
2021/11/06 08:01:34;;;;;;;1.20;1.03;;;6.70;98.00;;;;;;6185121;23;20712;-68
2021/11/06 08:04:01;;;;;;;1.73;1.30;;;6.70;98.00;;;;;;6185190;23;20771;-68
2021/11/06 08:06:29;;;;;;;1.70;1.40;;;6.50;98.00;;;;;;6184606;23;20487;-68
2021/11/06 08:08:56;;;;;;;1.20;1.00;;;6.50;98.00;;;;;;6185040;23;20402;-68
2021/11/06 08:11:25;;;;;;;1.57;1.47;;;6.60;98.00;;;;;;6184515;23;20474;-69
2021/11/06 08:13:53;;;;;;;2.70;1.10;;;6.60;98.00;;;;;;6184193;23;20490;-68
2021/11/06 08:16:20;;;;;;;1.20;1.10;;;6.70;98.00;;;;;;6158921;23;20404;-68
2021/11/06 08:18:47;;;;;;;1.70;1.20;;;6.60;98.00;;;;;;6184507;23;21073;-68
2021/11/06 08:21:15;;;;;;;1.20;1.10;;;6.60;98.00;;;;;;6184168;23;20409;-68
2021/11/06 08:23:51;;;;;;;1.20;0.90;;;6.60;98.00;;;;;;6184710;23;20418;-68
2021/11/06 08:26:18;;;;;;;1.40;1.10;;;6.60;98.00;;;;;;6158763;23;20401;-68
2021/11/06 08:28:45;;;;;;;1.50;1.23;;;6.70;98.00;;;;;;6184528;23;20481;-68
2021/11/06 08:31:12;;;;;;;1.20;1.00;;;6.70;98.00;;;;;;6184342;23;20453;-68
2021/11/06 08:33:39;;;;;;;1.30;1.10;;;6.60;98.00;;;;;;6184067;23;20444;-68
2021/11/06 08:36:07;;;;;;;1.20;1.00;;;6.60;98.00;;;;;;6184435;23;20486;-69
2021/11/06 08:38:34;;;;;;;5.63;1.30;;;6.70;98.00;;;;;;6184307;23;20450;-68
2021/11/06 08:41:02;;;;;;;1.57;1.33;;;6.80;98.00;;;;;;6184557;23;20445;-68
2021/11/06 08:43:30;;;;;;;1.40;1.37;;;6.90;98.00;;;;;;6184356;23;20454;-68
2021/11/06 08:46:01;;;;;;;1.20;1.10;;;6.90;98.00;;;;;;6184084;23;20439;-68
2021/11/06 08:48:27;;;;;;;2.33;1.60;;;6.90;98.00;;;;;;6183532;23;20916;-69
2021/11/06 08:50:55;;;;;;;1.20;1.20;;;6.90;98.00;;;;;;6181267;23;20853;-68
2021/11/06 08:53:22;;;;;;;1.40;1.17;;;7.00;98.00;;;;;;6183121;23;20429;-68
2021/11/06 08:55:49;;;;;;;2.70;1.50;;;7.00;98.00;;;;;;6183215;23;20418;-68
2021/11/06 08:58:18;;;;;;;2.70;1.57;;;6.90;98.00;;;;;;6183173;23;20448;-69
2021/11/06 09:00:49;;;;;;;1.20;1.00;;;6.90;98.00;;;;;;6183115;23;20423;-68
2021/11/06 09:03:18;;;;;;;1.20;1.20;;;7.00;98.00;;;;;;6182842;23;20401;-68
2021/11/06 09:05:50;;;;;;;3.10;1.43;;;7.10;98.00;;;;;;6182099;23;20411;-68
2021/11/06 09:08:18;;;;;;;1.20;1.00;;;7.10;98.00;;;;;;6182898;23;20411;-68
2021/11/06 09:10:46;;;;;;;1.10;1.00;;;7.20;98.00;;;;;;6184328;23;20400;-68
2021/11/06 09:13:13;;;;;;;1.33;1.10;;;8.40;98.00;;;;;;6183472;23;20766;-68
2021/11/06 09:15:42;;;;;;;1.43;1.40;;;9.00;98.00;;;;;;6184141;23;20399;-68
2021/11/06 09:18:10;;;;;;;1.30;1.00;;;8.90;98.00;;;;;;6133567;23;20452;-69
2021/11/06 09:20:37;;;;;;;2.00;1.60;;;8.80;98.00;;;;;;6184288;23;20403;-69
2021/11/06 09:23:04;;;;;;;2.90;1.70;;;8.60;98.00;;;;;;6184096;23;20475;-68
2021/11/06 09:25:31;;;;;;;2.07;1.17;;;8.40;98.00;;;;;;6184017;23;20443;-69
2021/11/06 09:27:58;;;;;;;1.33;1.23;;;8.20;98.00;;;;;;6183285;23;20478;-68
2021/11/06 09:30:25;;;;;;;1.40;1.20;;;8.00;98.00;;;;;;6156749;23;20464;-69
2021/11/06 09:32:54;;;;;;;1.20;1.13;;;7.80;98.00;;;;;;6184030;23;20712;-69
2021/11/06 09:35:21;;;;;;;1.30;1.30;;;7.60;98.00;;;;;;6183913;23;20455;-68
2021/11/06 09:37:50;;;;;;;2.40;1.23;;;7.50;98.00;;;;;;6183937;23;20425;-68
2021/11/06 09:40:17;;;;;;;1.20;1.00;;;7.40;98.00;;;;;;6184237;23;20408;-68
2021/11/06 09:42:44;;;;;;;2.67;1.30;;;7.40;98.00;;;;;;6184085;23;20403;-68
2021/11/06 09:45:16;;;;;;;2.67;2.17;;;7.20;98.00;;;;;;6158060;23;20404;-68
2021/11/06 09:47:44;;;;;;;2.00;1.33;;;7.40;98.00;;;;;;6183893;23;21041;-68
2021/11/06 09:50:14;;;;;;;1.20;1.00;;;7.40;98.00;;;;;;6158249;23;20498;-69
2021/11/06 09:52:41;;;;;;;1.70;1.30;;;7.40;98.00;;;;;;6183757;23;20508;-68
2021/11/06 09:55:09;;;;;;;1.70;1.60;;;7.60;98.00;;;;;;6184570;23;20507;-68
2021/11/06 09:57:37;;;;;;;1.20;1.00;;;7.70;98.00;;;;;;6186187;23;20403;-68
2021/11/06 10:00:07;;;;;;;1.30;1.10;;;7.60;98.00;;;;;;6186285;23;20407;-69
2021/11/06 10:02:37;;;;;;;2.00;1.70;;;7.30;98.00;;;;;;6186491;23;20399;-69
2021/11/06 10:05:07;;;;;;;1.20;1.10;;;7.30;98.00;;;;;;6186244;23;20416;-69
2021/11/06 10:07:38;;;;;;;7.30;1.30;;;7.10;98.00;;;;;;6185872;23;20457;-69
2021/11/06 10:10:13;;;;;;;6.73;1.73;;;7.10;98.00;;;;;;6185984;23;20399;-69
2021/11/06 10:12:48;;;;;;;1.20;1.10;;;7.10;98.00;;;;;;6185888;23;20399;-68
2021/11/06 10:15:16;;;;;;;2.90;1.87;;;7.30;98.00;;;;;;6186156;23;20480;-69
2021/11/06 10:17:43;;;;;;;1.50;1.30;;;7.50;98.00;;;;;;6185919;23;20869;-69
2021/11/06 10:20:22;;;;;;;3.53;1.50;;;7.70;98.00;;;;;;6186179;23;20407;-69
2021/11/06 10:22:51;;;;;;;1.43;1.20;;;7.70;98.00;;;;;;6186437;23;20425;-68
2021/11/06 10:25:21;;;;;;;1.30;1.23;;;7.70;98.00;;;;;;6185460;23;20430;-68
2021/11/06 10:27:53;;;;;;;1.27;1.20;;;7.70;98.00;;;;;;6186066;23;20423;-69
2021/11/06 10:30:25;;;;;;;1.47;1.23;;;7.70;98.00;;;;;;6185690;23;20406;-68
2021/11/06 10:33:09;;;;;;;2.53;1.40;;;7.70;98.00;;;;;;6185499;23;20469;-69
2021/11/06 10:35:37;;;;;;;2.00;1.23;;;7.80;98.00;;;;;;6185809;23;20734;-69
2021/11/06 10:38:09;;;;;;;1.77;1.50;;;7.70;98.00;;;;;;6185938;23;20698;-69
2021/11/06 10:40:40;;;;;;;2.20;1.70;;;7.80;98.00;;;;;;6185197;23;20905;-69
2021/11/06 10:43:09;;;;;;;2.43;1.10;;;7.70;98.00;;;;;;6185751;23;20570;-69
2021/11/06 10:45:41;;;;;;;1.20;1.00;;;7.70;98.00;;;;;;6159190;23;20458;-69
2021/11/06 10:48:12;;;;;;;1.90;1.30;;;7.80;98.00;;;;;;6185139;23;20489;-69
2021/11/06 10:50:50;;;;;;;2.80;1.30;;;7.80;98.00;;;;;;6185834;23;20440;-68
2021/11/06 10:53:38;;;;;;;1.40;1.20;;;7.80;98.00;;;;;;6185138;23;20402;-68
2021/11/06 10:56:19;;;;;;;1.83;1.67;;;7.80;98.00;;;;;;6184969;23;20408;-69
2021/11/06 10:58:49;;;;;;;3.10;1.63;;;7.80;98.00;;;;;;6185521;23;20395;-69
2021/11/06 11:01:23;;;;;;;1.87;1.23;;;7.80;98.00;;;;;;6185492;23;20404;-69
2021/11/06 11:03:51;;;;;;;1.33;1.27;;;7.80;98.00;;;;;;6185690;23;20403;-69
2021/11/06 11:06:20;;;;;;;1.57;1.47;;;7.90;98.00;;;;;;6183355;23;20417;-69
2021/11/06 11:08:51;;;;;;;1.40;1.33;;;7.90;98.00;;;;;;6185465;23;20426;-69
2021/11/06 11:11:21;;;;;;;1.50;1.30;;;7.90;98.00;;;;;;6185028;23;20772;-68
2021/11/06 11:14:05;;;;;;;1.37;1.33;;;7.80;98.00;;;;;;6184429;23;20453;-69
2021/11/06 11:16:33;;;;;;;1.73;1.20;;;7.90;98.00;;;;;;6160371;23;20401;-69
2021/11/06 11:19:05;;;;;;;1.50;1.40;;;7.90;98.00;;;;;;6184080;23;20494;-69
2021/11/06 11:21:38;;;;;;;2.00;1.20;;;7.80;98.00;;;;;;6183623;23;20410;-68
2021/11/06 11:24:09;;;;;;;1.40;1.27;;;7.90;98.00;;;;;;6159117;23;20399;-69
2021/11/06 11:26:38;;;;;;;1.20;1.00;;;7.90;98.00;;;;;;6184081;23;20408;-68
2021/11/06 11:29:06;;;;;;;2.03;1.50;;;8.00;98.00;;;;;;6184022;23;20861;-68
2021/11/06 11:31:35;;;;;;;1.67;1.50;;;8.10;98.00;;;;;;6184096;23;20480;-69
2021/11/06 11:34:02;;;;;;;1.90;1.80;;;8.10;98.00;;;;;;6184332;23;20502;-69
2021/11/06 11:36:32;;;;;;;1.57;1.20;;;8.00;98.00;;;;;;6157496;23;20431;-68
2021/11/06 11:39:01;;;;;;;1.40;1.10;;;8.10;98.00;;;;;;6184416;23;20457;-68
2021/11/06 11:42:16;;;;;;;1.30;1.30;;;8.00;98.00;;;;;;6184262;23;20461;-69
2021/11/06 11:45:19;;;;;;;2.23;1.20;;;8.10;98.00;;;;;;6184152;23;20419;-69
2021/11/06 11:47:53;;;;;;;2.93;1.43;;;8.10;98.00;;;;;;6183262;23;20480;-68
2021/11/06 11:50:30;;;;;;;1.20;1.00;;;8.20;98.00;;;;;;6183319;23;20783;-68
2021/11/06 11:52:58;;;;;;;1.33;1.30;;;8.30;98.00;;;;;;6183869;23;20433;-68
2021/11/06 11:55:36;;;;;;;1.30;1.27;;;8.30;98.00;;;;;;6183937;23;20791;-69
2021/11/06 11:58:10;;;;;;;1.70;1.10;;;8.30;98.00;;;;;;6193770;23;20428;-69
2021/11/06 12:00:44;;;;;;;2.43;1.20;;;8.30;98.00;;;;;;6183848;23;20430;-69
2021/11/06 12:03:11;;;;;;;1.40;1.00;;;8.20;98.00;;;;;;6184290;23;20420;-69
2021/11/06 12:05:41;;;;;;;3.53;1.77;;;8.20;98.00;;;;;;6183690;23;20909;-69
2021/11/06 12:08:31;;;;;;;1.50;1.20;;;8.20;98.00;;;;;;6183645;23;20427;-68
2021/11/06 12:11:12;;;;;;;1.20;1.20;;;7.90;98.00;;;;;;6183876;23;20413;-68
2021/11/06 12:13:41;;;;;;;1.20;1.10;;;8.00;98.00;;;;;;6183246;23;20456;-68
2021/11/06 12:16:12;;;;;;;5.33;1.73;;;8.10;98.00;;;;;;6183503;23;20410;-68
2021/11/06 12:19:09;;;;;;;1.43;1.20;;;8.20;98.00;;;;;;6183013;23;20399;-68
2021/11/06 12:21:45;;;;;;;1.67;1.40;;;8.30;98.00;;;;;;6100369;23;20456;-69
2021/11/06 12:24:34;;;;;;;2.17;1.20;;;8.30;98.00;;;;;;6183845;23;20418;-69
2021/11/06 12:27:03;;;;;;;7.90;2.03;;;8.10;98.00;;;;;;6172178;23;20438;-69
2021/11/06 12:29:40;;;;;;;2.20;2.00;;;8.00;98.00;;;;;;6183609;23;20408;-69
2021/11/06 12:32:32;;;;;;;2.37;1.53;;;7.80;98.00;;;;;;6183646;23;20407;-69
2021/11/06 12:35:17;;;;;;;1.77;1.70;;;7.70;98.00;;;;;;6182830;23;20509;-69
2021/11/06 12:37:47;;;;;;;1.20;1.20;;;7.70;98.00;;;;;;6183035;23;20740;-69
2021/11/06 12:40:23;;;;;;;2.17;1.43;;;7.90;98.00;;;;;;6182536;23;20459;-69
2021/11/06 12:43:13;;;;;;;1.33;1.20;;;8.10;98.00;;;;;;6157167;23;20702;-69
2021/11/06 12:45:43;;;;;;;1.73;1.30;;;8.00;98.00;;;;;;6183234;23;20431;-69
2021/11/06 12:48:14;;;;;;;1.40;1.10;;;8.10;98.00;;;;;;6183262;23;20438;-69
2021/11/06 12:50:42;;;;;;;2.73;1.47;;;8.10;98.00;;;;;;6182741;23;20496;-69
2021/11/06 12:53:09;;;;;;;1.37;1.13;;;8.10;98.00;;;;;;6183087;23;20458;-69
2021/11/06 12:55:37;;;;;;;1.20;1.17;;;8.20;98.00;;;;;;6183705;23;20430;-69
2021/11/06 12:58:05;;;;;;;1.83;1.53;;;8.40;98.00;;;;;;6184026;23;20396;-68
2021/11/06 13:00:35;;;;;;;2.73;1.77;;;8.40;98.00;;;;;;6183819;23;20780;-68
2021/11/06 13:03:03;;;;;;;2.03;1.20;;;8.40;98.00;;;;;;6182743;23;20507;-68
2021/11/06 13:05:46;;;;;;;1.30;1.20;;;8.30;98.00;;;;;;6183377;23;20725;-68
2021/11/06 13:08:16;;;;;;;1.40;1.30;;;8.40;98.00;;;;;;6182115;23;20920;-68